-19.55C
пасмурно
пасмурно
Дата и времяТемператураДавление, мм рт.ст.Влажность, %Осадки
МинимумМаксимум
07.12.2022 08:00-19.23C-18.29C77497пасмурно
07.12.2022 11:00-17.36C-16.19C77494пасмурно
07.12.2022 14:00-16.05C-16.05C77293облачно с прояснениями
07.12.2022 17:00-14.92C-14.92C77192пасмурно
07.12.2022 20:00-14.94C-14.94C77092пасмурно
07.12.2022 23:00-16.49C-16.49C76894пасмурно
08.12.2022 02:00-17.22C-17.22C76895пасмурно
08.12.2022 05:00-15.62C-15.62C76689пасмурно
08.12.2022 08:00-15.57C-15.57C76588пасмурно
08.12.2022 11:00-14.25C-14.25C76595небольшой снег
08.12.2022 14:00-13.26C-13.26C76494небольшой снег
08.12.2022 17:00-12.69C-12.69C76494небольшой снег
08.12.2022 20:00-12.97C-12.97C76494небольшой снег
08.12.2022 23:00-13.11C-13.11C76494небольшой снег
09.12.2022 02:00-13.76C-13.76C76395пасмурно
09.12.2022 05:00-14.04C-14.04C76396пасмурно
09.12.2022 08:00-12.88C-12.88C76294небольшой снег
09.12.2022 11:00-11.64C-11.64C76394небольшой снег
09.12.2022 14:00-14.3C-14.3C76494небольшой снег
09.12.2022 17:00-22.32C-22.32C76790пасмурно
09.12.2022 20:00-30.22C-30.22C76895переменная облачность
09.12.2022 23:00-32.53C-32.53C76896переменная облачность
10.12.2022 02:00-32.84C-32.84C76897небольшая облачность
10.12.2022 05:00-31.51C-31.51C76896ясно
10.12.2022 08:00-29.09C-29.09C76897пасмурно
10.12.2022 11:00-26.42C-26.42C76997пасмурно
10.12.2022 14:00-22.39C-22.39C77096пасмурно
10.12.2022 17:00-22.15C-22.15C77197пасмурно
10.12.2022 20:00-21.36C-21.36C77296пасмурно
10.12.2022 23:00-24.24C-24.24C77498пасмурно
11.12.2022 02:00-27.79C-27.79C77599облачно с прояснениями
11.12.2022 05:00-30.24C-30.24C777100переменная облачность
11.12.2022 08:00-31.64C-31.64C779100небольшая облачность
11.12.2022 11:00-29.98C-29.98C78098небольшая облачность
11.12.2022 14:00-29.92C-29.92C78199небольшая облачность
11.12.2022 17:00-30.89C-30.89C78199переменная облачность
11.12.2022 20:00-29.54C-29.54C78099облачно с прояснениями
11.12.2022 23:00-26.98C-26.98C77898облачно с прояснениями
12.12.2022 02:00-22.6C-22.6C77493пасмурно
12.12.2022 05:00-16.48C-16.48C77095небольшой снег
Дата и время наблюдения: 07.12.2022 06:02:15